Portada
METAR-TAF:

METAR-TAF

Aeroports :

Malakula, Vanuatu

latitud: 16-27-26S, longitud: 167-49-42E, altitud: 2 m

METAR: manca

Hora: 02:53 (15:53 UTC)

Pronòstic

L'informe es va fer fa 5 hores i 53 minuts, a les 10:00 UTC
Pronòstic vàlid del 22 a les 12 UTC al 23 a les 12 UTC
Vent 10 kt del Est/Sud-Est
Visibilitat: 9000 m
Núvols disperses a una alçada de 2000 ft
Cel ennuvolat a una alçada de 1800 ft
xàfecs de pluja

TAF: NVSL 221000Z 2212/2312 12010KT 9999 SCT020 INTER 2212/2218 9000 -SHRA BKN018

Observacions i pronòstics meteorològics de més de 4000 aeroports (METAR i TAF).

Les estacions disponibles són els punts grocs i vermells al mapa.

Posi el ratolí al punt desitjat per veure el nom de l'estació.

Feu clic per veure les observacions i els pronòstics meteorològics.

Per canviar el mapa: feu clic els botons verds amb una creu de color negre per apropar; al botó verd amb un guió per allunyar la imatge; o en les fletxes verdes per a mapes adjacents.


METAR-TAF: